sensor_id;sensor_type;location;lat;lon;timestamp;P1;durP1;ratioP1;P2;durP2;ratioP2
33485;SDS011;19824;52.098;5.004;2023-02-21T06:01:31;93.72;;;42.38;;
33485;SDS011;19824;52.098;5.004;2023-02-21T06:04:15;93.28;;;42.60;;
33485;SDS011;19824;52.098;5.004;2023-02-21T06:06:45;94.63;;;43.40;;
33485;SDS011;19824;52.098;5.004;2023-02-21T06:09:21;94.07;;;42.80;;
33485;SDS011;19824;52.098;5.004;2023-02-21T06:11:54;96.20;;;43.85;;
33485;SDS011;19824;52.098;5.004;2023-02-21T06:14:32;89.93;;;42.75;;
33485;SDS011;19824;52.098;5.004;2023-02-21T06:17:04;91.53;;;42.97;;
33485;SDS011;19824;52.098;5.004;2023-02-21T06:19:40;87.63;;;42.10;;
33485;SDS011;19824;52.098;5.004;2023-02-21T06:22:10;91.43;;;43.70;;
33485;SDS011;19824;52.098;5.004;2023-02-21T06:24:50;97.50;;;43.38;;
33485;SDS011;19824;52.098;5.004;2023-02-21T06:27:20;85.57;;;42.90;;
33485;SDS011;19824;52.098;5.004;2023-02-21T06:29:56;92.25;;;42.80;;
33485;SDS011;19824;52.098;5.004;2023-02-21T06:32:29;89.18;;;43.33;;
33485;SDS011;19824;52.098;5.004;2023-02-21T06:35:06;87.82;;;42.55;;
33485;SDS011;19824;52.098;5.004;2023-02-21T06:37:42;84.50;;;43.10;;
33485;SDS011;19824;52.098;5.004;2023-02-21T06:40:13;95.00;;;43.97;;
33485;SDS011;19824;52.098;5.004;2023-02-21T06:42:49;86.65;;;43.20;;
33485;SDS011;19824;52.098;5.004;2023-02-21T06:45:25;87.88;;;43.15;;
33485;SDS011;19824;52.098;5.004;2023-02-21T06:47:58;91.47;;;43.08;;
33485;SDS011;19824;52.098;5.004;2023-02-21T06:50:35;90.32;;;43.47;;
33485;SDS011;19824;52.098;5.004;2023-02-21T06:53:05;85.57;;;43.22;;
33485;SDS011;19824;52.098;5.004;2023-02-21T06:55:42;91.65;;;43.75;;
33485;SDS011;19824;52.098;5.004;2023-02-21T06:58:12;90.43;;;45.00;;
33485;SDS011;19824;52.098;5.004;2023-02-21T07:00:48;91.32;;;42.83;;
33485;SDS011;19824;52.098;5.004;2023-02-21T07:03:21;92.93;;;45.22;;
33485;SDS011;19824;52.098;5.004;2023-02-21T07:05:57;84.40;;;42.58;;
33485;SDS011;19824;52.098;5.004;2023-02-21T07:08:33;95.88;;;44.30;;
33485;SDS011;19824;52.098;5.004;2023-02-21T07:11:04;88.18;;;43.50;;
33485;SDS011;19824;52.098;5.004;2023-02-21T07:13:45;96.93;;;46.45;;
33485;SDS011;19824;52.098;5.004;2023-02-21T07:16:18;93.65;;;44.83;;
33485;SDS011;19824;52.098;5.004;2023-02-21T07:18:58;87.20;;;42.80;;
33485;SDS011;19824;52.098;5.004;2023-02-21T07:21:28;98.28;;;43.85;;
33485;SDS011;19824;52.098;5.004;2023-02-21T07:24:06;88.93;;;43.28;;
33485;SDS011;19824;52.098;5.004;2023-02-21T07:26:43;94.15;;;44.80;;
33485;SDS011;19824;52.098;5.004;2023-02-21T07:29:13;92.05;;;43.45;;
33485;SDS011;19824;52.098;5.004;2023-02-21T07:31:50;90.22;;;44.15;;
33485;SDS011;19824;52.098;5.004;2023-02-21T07:34:22;89.32;;;43.13;;
33485;SDS011;19824;52.098;5.004;2023-02-21T07:36:58;94.32;;;44.30;;
33485;SDS011;19824;52.098;5.004;2023-02-21T07:39:28;91.43;;;43.10;;
33485;SDS011;19824;52.098;5.004;2023-02-21T07:42:05;95.13;;;43.60;;
33485;SDS011;19824;52.098;5.004;2023-02-21T07:44:42;93.53;;;43.15;;
33485;SDS011;19824;52.098;5.004;2023-02-21T07:47:12;94.28;;;45.50;;
33485;SDS011;19824;52.098;5.004;2023-02-21T07:49:51;90.90;;;44.35;;
33485;SDS011;19824;52.098;5.004;2023-02-21T07:52:29;92.40;;;44.38;;
33485;SDS011;19824;52.098;5.004;2023-02-21T07:54:59;102.65;;;44.22;;
33485;SDS011;19824;52.098;5.004;2023-02-21T07:57:36;92.35;;;43.28;;
33485;SDS011;19824;52.098;5.004;2023-02-21T08:00:06;97.60;;;45.30;;
33485;SDS011;19824;52.098;5.004;2023-02-21T08:02:45;98.95;;;45.83;;
33485;SDS011;19824;52.098;5.004;2023-02-21T08:05:19;102.80;;;46.65;;
33485;SDS011;19824;52.098;5.004;2023-02-21T08:07:57;101.75;;;46.95;;
33485;SDS011;19824;52.098;5.004;2023-02-21T08:10:27;114.35;;;49.25;;
33485;SDS011;19824;52.098;5.004;2023-02-21T08:13:04;118.22;;;48.53;;
33485;SDS011;19824;52.098;5.004;2023-02-21T08:15:34;111.10;;;48.10;;
33485;SDS011;19824;52.098;5.004;2023-02-21T08:18:13;108.85;;;47.95;;
33485;SDS011;19824;52.098;5.004;2023-02-21T08:20:52;114.60;;;48.40;;
33485;SDS011;19824;52.098;5.004;2023-02-21T08:23:30;105.90;;;47.13;;
33485;SDS011;19824;52.098;5.004;2023-02-21T08:26:01;127.22;;;50.95;;
33485;SDS011;19824;52.098;5.004;2023-02-21T08:28:39;116.53;;;50.45;;
33485;SDS011;19824;52.098;5.004;2023-02-21T08:31:11;125.20;;;50.67;;
33485;SDS011;19824;52.098;5.004;2023-02-21T08:33:48;134.00;;;50.90;;
33485;SDS011;19824;52.098;5.004;2023-02-21T08:36:32;130.30;;;51.70;;
33485;SDS011;19824;52.098;5.004;2023-02-21T08:39:04;150.02;;;53.58;;
33485;SDS011;19824;52.098;5.004;2023-02-21T08:41:42;140.70;;;51.97;;
33485;SDS011;19824;52.098;5.004;2023-02-21T08:44:16;140.70;;;52.13;;
33485;SDS011;19824;52.098;5.004;2023-02-21T08:46:54;133.05;;;51.22;;
33485;SDS011;19824;52.098;5.004;2023-02-21T08:49:31;134.18;;;50.40;;
33485;SDS011;19824;52.098;5.004;2023-02-21T08:52:07;134.38;;;53.35;;
33485;SDS011;19824;52.098;5.004;2023-02-21T08:54:44;139.27;;;51.53;;
33485;SDS011;19824;52.098;5.004;2023-02-21T08:57:14;155.48;;;53.35;;
33485;SDS011;19824;52.098;5.004;2023-02-21T08:59:51;141.93;;;50.63;;
33485;SDS011;19824;52.098;5.004;2023-02-21T09:02:22;151.15;;;53.75;;
33485;SDS011;19824;52.098;5.004;2023-02-21T09:05:00;149.05;;;54.80;;
33485;SDS011;19824;52.098;5.004;2023-02-21T09:07:32;162.98;;;54.38;;
33485;SDS011;19824;52.098;5.004;2023-02-21T09:10:09;161.55;;;55.42;;
33485;SDS011;19824;52.098;5.004;2023-02-21T09:12:39;149.38;;;54.05;;
33485;SDS011;19824;52.098;5.004;2023-02-21T09:15:16;147.50;;;52.00;;
33485;SDS011;19824;52.098;5.004;2023-02-21T09:17:46;156.00;;;53.85;;
33485;SDS011;19824;52.098;5.004;2023-02-21T09:20:24;162.00;;;55.17;;
33485;SDS011;19824;52.098;5.004;2023-02-21T09:22:57;157.07;;;53.53;;
33485;SDS011;19824;52.098;5.004;2023-02-21T09:25:34;158.95;;;54.03;;
33485;SDS011;19824;52.098;5.004;2023-02-21T09:28:04;174.38;;;54.67;;
33485;SDS011;19824;52.098;5.004;2023-02-21T09:30:41;169.88;;;55.50;;
33485;SDS011;19824;52.098;5.004;2023-02-21T09:33:11;174.20;;;54.72;;
33485;SDS011;19824;52.098;5.004;2023-02-21T09:35:50;167.98;;;54.20;;
33485;SDS011;19824;52.098;5.004;2023-02-21T09:38:23;169.52;;;53.72;;
33485;SDS011;19824;52.098;5.004;2023-02-21T09:41:00;173.25;;;55.30;;
33485;SDS011;19824;52.098;5.004;2023-02-21T09:43:34;166.05;;;53.15;;
33485;SDS011;19824;52.098;5.004;2023-02-21T09:46:15;177.88;;;51.88;;
33485;SDS011;19824;52.098;5.004;2023-02-21T09:48:50;153.05;;;52.00;;
33485;SDS011;19824;52.098;5.004;2023-02-21T09:51:28;154.52;;;52.17;;
33485;SDS011;19824;52.098;5.004;2023-02-21T09:54:05;158.43;;;52.63;;
33485;SDS011;19824;52.098;5.004;2023-02-21T09:56:48;156.73;;;52.72;;
33485;SDS011;19824;52.098;5.004;2023-02-21T09:59:18;148.73;;;49.95;;
33485;SDS011;19824;52.098;5.004;2023-02-21T10:01:58;156.93;;;50.83;;
33485;SDS011;19824;52.098;5.004;2023-02-21T10:04:57;148.77;;;52.05;;
33485;SDS011;19824;52.098;5.004;2023-02-21T10:07:37;159.10;;;52.42;;
33485;SDS011;19824;52.098;5.004;2023-02-21T10:10:25;164.98;;;54.40;;
33485;SDS011;19824;52.098;5.004;2023-02-21T10:13:10;166.52;;;55.80;;
33485;SDS011;19824;52.098;5.004;2023-02-21T10:15:59;179.07;;;55.35;;
33485;SDS011;19824;52.098;5.004;2023-02-21T10:18:42;173.82;;;55.40;;
33485;SDS011;19824;52.098;5.004;2023-02-21T10:21:21;175.88;;;54.92;;
33485;SDS011;19824;52.098;5.004;2023-02-21T10:24:09;151.82;;;51.85;;
33485;SDS011;19824;52.098;5.004;2023-02-21T10:26:45;154.98;;;53.25;;
33485;SDS011;19824;52.098;5.004;2023-02-21T10:29:32;165.68;;;54.13;;
33485;SDS011;19824;52.098;5.004;2023-02-21T10:32:09;157.05;;;52.55;;
33485;SDS011;19824;52.098;5.004;2023-02-21T10:34:46;161.77;;;52.30;;
33485;SDS011;19824;52.098;5.004;2023-02-21T10:37:31;155.00;;;53.20;;
33485;SDS011;19824;52.098;5.004;2023-02-21T10:40:21;156.60;;;53.50;;
33485;SDS011;19824;52.098;5.004;2023-02-21T10:43:03;163.20;;;55.67;;
33485;SDS011;19824;52.098;5.004;2023-02-21T10:45:48;165.25;;;55.13;;
33485;SDS011;19824;52.098;5.004;2023-02-21T10:48:27;169.40;;;56.25;;
33485;SDS011;19824;52.098;5.004;2023-02-21T10:51:11;163.90;;;55.30;;
33485;SDS011;19824;52.098;5.004;2023-02-21T10:53:44;161.23;;;52.85;;
33485;SDS011;19824;52.098;5.004;2023-02-21T10:56:23;172.68;;;53.78;;
33485;SDS011;19824;52.098;5.004;2023-02-21T10:59:05;156.35;;;53.85;;
33485;SDS011;19824;52.098;5.004;2023-02-21T11:01:36;155.07;;;52.85;;
33485;SDS011;19824;52.098;5.004;2023-02-21T11:04:24;148.30;;;51.42;;
33485;SDS011;19824;52.098;5.004;2023-02-21T11:07:02;144.93;;;51.42;;
33485;SDS011;19824;52.098;5.004;2023-02-21T11:09:41;129.63;;;49.72;;
33485;SDS011;19824;52.098;5.004;2023-02-21T11:12:21;142.50;;;51.45;;
33485;SDS011;19824;52.098;5.004;2023-02-21T11:15:13;159.13;;;52.78;;
33485;SDS011;19824;52.098;5.004;2023-02-21T11:18:01;162.77;;;54.15;;
33485;SDS011;19824;52.098;5.004;2023-02-21T11:20:41;165.73;;;55.20;;
33485;SDS011;19824;52.098;5.004;2023-02-21T11:23:20;172.48;;;54.88;;
33485;SDS011;19824;52.098;5.004;2023-02-21T11:25:56;171.05;;;54.83;;
33485;SDS011;19824;52.098;5.004;2023-02-21T11:28:40;159.90;;;53.67;;
33485;SDS011;19824;52.098;5.004;2023-02-21T11:31:17;154.25;;;51.78;;
33485;SDS011;19824;52.098;5.004;2023-02-21T11:34:01;154.77;;;49.47;;
33485;SDS011;19824;52.098;5.004;2023-02-21T11:36:35;154.05;;;50.42;;
33485;SDS011;19824;52.098;5.004;2023-02-21T11:39:16;137.38;;;50.22;;
33485;SDS011;19824;52.098;5.004;2023-02-21T11:41:53;131.82;;;48.83;;
33485;SDS011;19824;52.098;5.004;2023-02-21T11:44:32;127.00;;;46.67;;
33485;SDS011;19824;52.098;5.004;2023-02-21T11:47:10;117.50;;;43.63;;
33485;SDS011;19824;52.098;5.004;2023-02-21T11:49:52;121.45;;;45.38;;
33485;SDS011;19824;52.098;5.004;2023-02-21T11:52:36;121.25;;;47.55;;
33485;SDS011;19824;52.098;5.004;2023-02-21T11:55:20;108.30;;;44.88;;
33485;SDS011;19824;52.098;5.004;2023-02-21T11:57:54;104.25;;;43.33;;
33485;SDS011;19824;52.098;5.004;2023-02-21T12:00:42;109.97;;;44.65;;
33485;SDS011;19824;52.098;5.004;2023-02-21T12:06:44;105.10;;;43.88;;
33485;SDS011;19824;52.098;5.004;2023-02-21T12:09:24;113.18;;;44.28;;
33485;SDS011;19824;52.098;5.004;2023-02-21T12:12:10;93.82;;;41.42;;
33485;SDS011;19824;52.098;5.004;2023-02-21T12:14:59;92.80;;;39.85;;
33485;SDS011;19824;52.098;5.004;2023-02-21T12:17:54;86.32;;;37.55;;
33485;SDS011;19824;52.098;5.004;2023-02-21T12:20:53;88.15;;;37.20;;
33485;SDS011;19824;52.098;5.004;2023-02-21T12:23:58;79.03;;;37.42;;
33485;SDS011;19824;52.098;5.004;2023-02-21T12:26:52;80.45;;;36.33;;
33485;SDS011;19824;52.098;5.004;2023-02-21T12:29:38;76.30;;;33.72;;
33485;SDS011;19824;52.098;5.004;2023-02-21T12:38:52;67.05;;;30.42;;
33485;SDS011;19824;52.098;5.004;2023-02-21T12:41:35;65.82;;;29.95;;
33485;SDS011;19824;52.098;5.004;2023-02-21T12:44:25;62.45;;;28.63;;
33485;SDS011;19824;52.098;5.004;2023-02-21T12:47:06;63.42;;;28.67;;
33485;SDS011;19824;52.098;5.004;2023-02-21T12:49:51;66.15;;;28.60;;
33485;SDS011;19824;52.098;5.004;2023-02-21T12:52:33;58.05;;;25.85;;
33485;SDS011;19824;52.098;5.004;2023-02-21T12:55:17;53.58;;;23.75;;
33485;SDS011;19824;52.098;5.004;2023-02-21T12:57:53;53.15;;;23.02;;
33485;SDS011;19824;52.098;5.004;2023-02-21T13:00:35;46.45;;;21.88;;
33485;SDS011;19824;52.098;5.004;2023-02-21T13:03:17;49.85;;;22.95;;
33485;SDS011;19824;52.098;5.004;2023-02-21T13:06:14;51.40;;;23.05;;
33485;SDS011;19824;52.098;5.004;2023-02-21T13:09:01;54.45;;;24.58;;
33485;SDS011;19824;52.098;5.004;2023-02-21T13:11:56;54.58;;;23.90;;
33485;SDS011;19824;52.098;5.004;2023-02-21T13:14:33;54.92;;;24.77;;
33485;SDS011;19824;52.098;5.004;2023-02-21T13:17:16;55.53;;;24.67;;
33485;SDS011;19824;52.098;5.004;2023-02-21T13:19:47;57.47;;;26.60;;
33485;SDS011;19824;52.098;5.004;2023-02-21T13:25:27;51.67;;;24.85;;
33485;SDS011;19824;52.098;5.004;2023-02-21T13:28:19;47.95;;;23.95;;
33485;SDS011;19824;52.098;5.004;2023-02-21T13:30:51;47.10;;;23.73;;
33485;SDS011;19824;52.098;5.004;2023-02-21T13:33:34;41.35;;;21.65;;
33485;SDS011;19824;52.098;5.004;2023-02-21T13:36:18;38.13;;;19.88;;
33485;SDS011;19824;52.098;5.004;2023-02-21T13:39:02;35.45;;;19.15;;
33485;SDS011;19824;52.098;5.004;2023-02-21T13:41:44;27.73;;;15.90;;
33485;SDS011;19824;52.098;5.004;2023-02-21T13:44:24;28.35;;;16.27;;
33485;SDS011;19824;52.098;5.004;2023-02-21T13:47:06;27.58;;;15.07;;
33485;SDS011;19824;52.098;5.004;2023-02-21T13:49:52;22.75;;;14.20;;
33485;SDS011;19824;52.098;5.004;2023-02-21T13:52:35;24.20;;;14.32;;
